sensor_id;sensor_type;location;lat;lon;timestamp;P1;durP1;ratioP1;P2;durP2;ratioP2
60002;SDS011;46322;52.018;8.702;2022-09-09T00:22:48;3.05;;;1.20;;
60002;SDS011;46322;52.018;8.702;2022-09-09T00:27:55;3.97;;;1.38;;
60002;SDS011;46322;52.018;8.702;2022-09-09T00:32:59;3.83;;;1.43;;
60002;SDS011;46322;52.018;8.702;2022-09-09T00:38:02;5.15;;;1.40;;
60002;SDS011;46322;52.018;8.702;2022-09-09T00:48:24;5.57;;;1.27;;
60002;SDS011;46322;52.018;8.702;2022-09-09T01:04:13;3.95;;;1.30;;
60002;SDS011;46322;52.018;8.702;2022-09-09T01:09:22;5.37;;;1.90;;
60002;SDS011;46322;52.018;8.702;2022-09-09T01:30:41;4.72;;;1.70;;
60002;SDS011;46322;52.018;8.702;2022-09-09T01:35:50;4.35;;;1.75;;
60002;SDS011;46322;52.018;8.702;2022-09-09T01:40:55;4.10;;;1.60;;
60002;SDS011;46322;52.018;8.702;2022-09-09T01:45:56;6.70;;;1.60;;
60002;SDS011;46322;52.018;8.702;2022-09-09T01:51:00;4.18;;;1.60;;
60002;SDS011;46322;52.018;8.702;2022-09-09T01:56:02;4.50;;;1.70;;
60002;SDS011;46322;52.018;8.702;2022-09-09T02:01:12;5.65;;;1.40;;
60002;SDS011;46322;52.018;8.702;2022-09-09T02:11:23;5.25;;;1.50;;
60002;SDS011;46322;52.018;8.702;2022-09-09T02:21:28;3.72;;;1.60;;
60002;SDS011;46322;52.018;8.702;2022-09-09T02:26:31;4.00;;;1.50;;
60002;SDS011;46322;52.018;8.702;2022-09-09T02:31:33;4.93;;;1.80;;
60002;SDS011;46322;52.018;8.702;2022-09-09T02:36:35;3.70;;;1.63;;
60002;SDS011;46322;52.018;8.702;2022-09-09T02:41:37;5.07;;;1.77;;
60002;SDS011;46322;52.018;8.702;2022-09-09T02:46:58;5.15;;;1.80;;
60002;SDS011;46322;52.018;8.702;2022-09-09T02:52:04;6.28;;;1.90;;
60002;SDS011;46322;52.018;8.702;2022-09-09T02:57:17;3.87;;;2.00;;
60002;SDS011;46322;52.018;8.702;2022-09-09T03:02:19;4.53;;;1.90;;
60002;SDS011;46322;52.018;8.702;2022-09-09T03:07:19;6.88;;;2.90;;
60002;SDS011;46322;52.018;8.702;2022-09-09T03:12:21;5.80;;;2.10;;
60002;SDS011;46322;52.018;8.702;2022-09-09T03:17:22;4.50;;;1.70;;
60002;SDS011;46322;52.018;8.702;2022-09-09T03:22:22;5.93;;;2.93;;
60002;SDS011;46322;52.018;8.702;2022-09-09T03:27:23;5.73;;;2.07;;
60002;SDS011;46322;52.018;8.702;2022-09-09T03:32:23;7.22;;;1.92;;
60002;SDS011;46322;52.018;8.702;2022-09-09T03:37:24;5.22;;;2.00;;
60002;SDS011;46322;52.018;8.702;2022-09-09T03:42:25;4.95;;;1.80;;
60002;SDS011;46322;52.018;8.702;2022-09-09T03:47:25;4.63;;;1.73;;
60002;SDS011;46322;52.018;8.702;2022-09-09T03:52:25;3.60;;;1.70;;
60002;SDS011;46322;52.018;8.702;2022-09-09T03:57:26;4.97;;;1.70;;
60002;SDS011;46322;52.018;8.702;2022-09-09T04:02:26;5.43;;;1.55;;
60002;SDS011;46322;52.018;8.702;2022-09-09T04:07:26;4.05;;;1.50;;
60002;SDS011;46322;52.018;8.702;2022-09-09T04:12:26;5.43;;;1.40;;
60002;SDS011;46322;52.018;8.702;2022-09-09T04:17:27;6.85;;;1.63;;
60002;SDS011;46322;52.018;8.702;2022-09-09T04:22:27;7.57;;;1.50;;
60002;SDS011;46322;52.018;8.702;2022-09-09T04:27:28;3.65;;;1.80;;
60002;SDS011;46322;52.018;8.702;2022-09-09T04:32:29;4.13;;;1.42;;
60002;SDS011;46322;52.018;8.702;2022-09-09T04:37:29;4.63;;;1.48;;
60002;SDS011;46322;52.018;8.702;2022-09-09T04:42:29;5.65;;;1.70;;
60002;SDS011;46322;52.018;8.702;2022-09-09T04:47:30;4.63;;;1.80;;
60002;SDS011;46322;52.018;8.702;2022-09-09T04:52:30;3.72;;;1.85;;
60002;SDS011;46322;52.018;8.702;2022-09-09T04:57:30;7.00;;;2.03;;
60002;SDS011;46322;52.018;8.702;2022-09-09T05:02:31;5.45;;;2.10;;
60002;SDS011;46322;52.018;8.702;2022-09-09T05:07:31;4.63;;;1.70;;
60002;SDS011;46322;52.018;8.702;2022-09-09T05:12:31;6.67;;;2.10;;
60002;SDS011;46322;52.018;8.702;2022-09-09T05:17:32;5.20;;;1.98;;
60002;SDS011;46322;52.018;8.702;2022-09-09T05:22:32;4.53;;;2.22;;
60002;SDS011;46322;52.018;8.702;2022-09-09T05:27:33;4.77;;;2.00;;
60002;SDS011;46322;52.018;8.702;2022-09-09T05:32:34;6.00;;;2.28;;
60002;SDS011;46322;52.018;8.702;2022-09-09T05:37:34;5.35;;;2.53;;
60002;SDS011;46322;52.018;8.702;2022-09-09T05:42:35;6.05;;;2.10;;
60002;SDS011;46322;52.018;8.702;2022-09-09T05:47:35;5.50;;;2.25;;
60002;SDS011;46322;52.018;8.702;2022-09-09T05:52:36;5.33;;;2.17;;
60002;SDS011;46322;52.018;8.702;2022-09-09T05:57:36;5.27;;;2.03;;
60002;SDS011;46322;52.018;8.702;2022-09-09T06:02:36;4.47;;;1.60;;
60002;SDS011;46322;52.018;8.702;2022-09-09T06:07:37;6.85;;;1.88;;
60002;SDS011;46322;52.018;8.702;2022-09-09T06:12:37;5.03;;;1.90;;
60002;SDS011;46322;52.018;8.702;2022-09-09T06:17:37;5.78;;;1.70;;
60002;SDS011;46322;52.018;8.702;2022-09-09T06:22:39;3.70;;;1.60;;
60002;SDS011;46322;52.018;8.702;2022-09-09T06:27:40;7.30;;;2.00;;
60002;SDS011;46322;52.018;8.702;2022-09-09T06:32:40;5.77;;;1.60;;
60002;SDS011;46322;52.018;8.702;2022-09-09T06:37:44;6.25;;;1.70;;
60002;SDS011;46322;52.018;8.702;2022-09-09T06:42:45;7.87;;;1.70;;
60002;SDS011;46322;52.018;8.702;2022-09-09T06:47:46;4.70;;;1.65;;
60002;SDS011;46322;52.018;8.702;2022-09-09T06:52:46;5.63;;;1.90;;
60002;SDS011;46322;52.018;8.702;2022-09-09T06:57:46;6.70;;;1.70;;
60002;SDS011;46322;52.018;8.702;2022-09-09T07:02:46;5.65;;;1.42;;
60002;SDS011;46322;52.018;8.702;2022-09-09T07:07:47;6.80;;;1.60;;
60002;SDS011;46322;52.018;8.702;2022-09-09T07:12:50;4.30;;;1.50;;
60002;SDS011;46322;52.018;8.702;2022-09-09T07:17:51;4.70;;;1.53;;
60002;SDS011;46322;52.018;8.702;2022-09-09T07:22:54;8.38;;;1.92;;
60002;SDS011;46322;52.018;8.702;2022-09-09T07:27:55;4.72;;;1.67;;
60002;SDS011;46322;52.018;8.702;2022-09-09T07:32:56;4.00;;;1.60;;
60002;SDS011;46322;52.018;8.702;2022-09-09T07:37:56;4.50;;;1.80;;
60002;SDS011;46322;52.018;8.702;2022-09-09T07:42:56;5.53;;;1.88;;
60002;SDS011;46322;52.018;8.702;2022-09-09T07:47:57;4.55;;;1.88;;
60002;SDS011;46322;52.018;8.702;2022-09-09T07:52:57;6.00;;;1.50;;
60002;SDS011;46322;52.018;8.702;2022-09-09T07:57:58;4.18;;;1.60;;
60002;SDS011;46322;52.018;8.702;2022-09-09T08:02:58;4.25;;;1.40;;
60002;SDS011;46322;52.018;8.702;2022-09-09T08:07:58;5.83;;;1.67;;
60002;SDS011;46322;52.018;8.702;2022-09-09T08:12:58;5.95;;;1.58;;
60002;SDS011;46322;52.018;8.702;2022-09-09T08:17:59;6.07;;;1.73;;
60002;SDS011;46322;52.018;8.702;2022-09-09T08:22:59;3.55;;;1.50;;
60002;SDS011;46322;52.018;8.702;2022-09-09T08:27:59;6.88;;;1.65;;
60002;SDS011;46322;52.018;8.702;2022-09-09T08:32:59;6.07;;;1.60;;
60002;SDS011;46322;52.018;8.702;2022-09-09T08:38:01;4.10;;;1.70;;
60002;SDS011;46322;52.018;8.702;2022-09-09T08:43:01;7.80;;;1.90;;
60002;SDS011;46322;52.018;8.702;2022-09-09T08:53:16;6.38;;;1.50;;
60002;SDS011;46322;52.018;8.702;2022-09-09T09:03:27;4.37;;;1.20;;
60002;SDS011;46322;52.018;8.702;2022-09-09T09:08:36;9.33;;;1.50;;
60002;SDS011;46322;52.018;8.702;2022-09-09T09:13:57;5.90;;;1.30;;
60002;SDS011;46322;52.018;8.702;2022-09-09T09:19:00;5.25;;;1.20;;
60002;SDS011;46322;52.018;8.702;2022-09-09T09:24:00;4.80;;;0.97;;
60002;SDS011;46322;52.018;8.702;2022-09-09T09:29:08;5.37;;;1.50;;
60002;SDS011;46322;52.018;8.702;2022-09-09T09:34:11;3.42;;;1.20;;
60002;SDS011;46322;52.018;8.702;2022-09-09T09:39:21;3.78;;;1.10;;
60002;SDS011;46322;52.018;8.702;2022-09-09T09:44:31;2.72;;;0.88;;
60002;SDS011;46322;52.018;8.702;2022-09-09T09:49:53;4.70;;;1.10;;
60002;SDS011;46322;52.018;8.702;2022-09-09T09:54:54;4.00;;;1.40;;
60002;SDS011;46322;52.018;8.702;2022-09-09T10:10:20;3.08;;;0.90;;
60002;SDS011;46322;52.018;8.702;2022-09-09T10:15:27;3.97;;;1.20;;
60002;SDS011;46322;52.018;8.702;2022-09-09T10:20:54;5.53;;;1.23;;
60002;SDS011;46322;52.018;8.702;2022-09-09T10:31:25;4.38;;;1.30;;
60002;SDS011;46322;52.018;8.702;2022-09-09T10:36:35;3.85;;;1.10;;
60002;SDS011;46322;52.018;8.702;2022-09-09T10:52:36;5.10;;;1.20;;
60002;SDS011;46322;52.018;8.702;2022-09-09T10:57:59;4.57;;;1.30;;
60002;SDS011;46322;52.018;8.702;2022-09-09T11:03:04;3.78;;;1.00;;
60002;SDS011;46322;52.018;8.702;2022-09-09T11:08:11;3.97;;;1.20;;
60002;SDS011;46322;52.018;8.702;2022-09-09T11:13:35;4.37;;;1.13;;
60002;SDS011;46322;52.018;8.702;2022-09-09T11:18:42;4.00;;;1.20;;
60002;SDS011;46322;52.018;8.702;2022-09-09T11:23:45;3.92;;;1.23;;
60002;SDS011;46322;52.018;8.702;2022-09-09T11:34:42;5.47;;;1.10;;
60002;SDS011;46322;52.018;8.702;2022-09-09T11:44:29;4.15;;;1.10;;
60002;SDS011;46322;52.018;8.702;2022-09-09T11:49:40;3.80;;;1.30;;
60002;SDS011;46322;52.018;8.702;2022-09-09T11:54:46;3.63;;;1.10;;
60002;SDS011;46322;52.018;8.702;2022-09-09T12:00:04;4.00;;;1.15;;
60002;SDS011;46322;52.018;8.702;2022-09-09T12:05:06;4.43;;;1.20;;
60002;SDS011;46322;52.018;8.702;2022-09-09T12:15:33;5.20;;;1.30;;
60002;SDS011;46322;52.018;8.702;2022-09-09T12:20:37;4.60;;;1.30;;
60002;SDS011;46322;52.018;8.702;2022-09-09T12:36:53;5.85;;;1.00;;
60002;SDS011;46322;52.018;8.702;2022-09-09T12:41:59;2.78;;;0.98;;
60002;SDS011;46322;52.018;8.702;2022-09-09T12:47:01;2.57;;;0.90;;
60002;SDS011;46322;52.018;8.702;2022-09-09T12:52:04;5.83;;;1.23;;
60002;SDS011;46322;52.018;8.702;2022-09-09T12:57:09;4.00;;;1.00;;
60002;SDS011;46322;52.018;8.702;2022-09-09T13:02:16;3.13;;;0.98;;
60002;SDS011;46322;52.018;8.702;2022-09-09T13:07:19;5.00;;;1.25;;
60002;SDS011;46322;52.018;8.702;2022-09-09T13:12:22;3.43;;;1.20;;
60002;SDS011;46322;52.018;8.702;2022-09-09T13:17:24;3.17;;;1.23;;
60002;SDS011;46322;52.018;8.702;2022-09-09T13:22:35;4.72;;;1.00;;
60002;SDS011;46322;52.018;8.702;2022-09-09T13:27:39;3.03;;;1.13;;
60002;SDS011;46322;52.018;8.702;2022-09-09T13:33:00;5.53;;;1.00;;
60002;SDS011;46322;52.018;8.702;2022-09-09T13:38:13;3.78;;;1.20;;
60002;SDS011;46322;52.018;8.702;2022-09-09T13:43:21;3.57;;;1.13;;
60002;SDS011;46322;52.018;8.702;2022-09-09T13:48:23;3.83;;;0.90;;
60002;SDS011;46322;52.018;8.702;2022-09-09T13:53:25;3.10;;;1.08;;
60002;SDS011;46322;52.018;8.702;2022-09-09T13:58:25;3.40;;;1.20;;
60002;SDS011;46322;52.018;8.702;2022-09-09T14:03:25;4.30;;;1.20;;
60002;SDS011;46322;52.018;8.702;2022-09-09T14:08:26;4.32;;;1.30;;
60002;SDS011;46322;52.018;8.702;2022-09-09T14:13:27;3.00;;;1.20;;
60002;SDS011;46322;52.018;8.702;2022-09-09T14:18:27;3.35;;;1.30;;
60002;SDS011;46322;52.018;8.702;2022-09-09T14:23:27;2.40;;;1.20;;
60002;SDS011;46322;52.018;8.702;2022-09-09T14:28:28;3.40;;;1.00;;
60002;SDS011;46322;52.018;8.702;2022-09-09T14:33:28;2.80;;;1.00;;
60002;SDS011;46322;52.018;8.702;2022-09-09T14:38:29;3.43;;;1.07;;
60002;SDS011;46322;52.018;8.702;2022-09-09T14:43:30;3.42;;;1.20;;
60002;SDS011;46322;52.018;8.702;2022-09-09T14:48:30;4.43;;;1.10;;
60002;SDS011;46322;52.018;8.702;2022-09-09T14:53:31;3.10;;;1.07;;
60002;SDS011;46322;52.018;8.702;2022-09-09T14:58:31;2.30;;;0.88;;
60002;SDS011;46322;52.018;8.702;2022-09-09T15:03:32;3.13;;;0.80;;
60002;SDS011;46322;52.018;8.702;2022-09-09T15:08:35;3.95;;;0.90;;
60002;SDS011;46322;52.018;8.702;2022-09-09T15:13:37;3.45;;;0.90;;
60002;SDS011;46322;52.018;8.702;2022-09-09T15:18:39;2.60;;;0.87;;
60002;SDS011;46322;52.018;8.702;2022-09-09T15:23:40;3.33;;;1.10;;
60002;SDS011;46322;52.018;8.702;2022-09-09T15:28:40;2.50;;;0.90;;
60002;SDS011;46322;52.018;8.702;2022-09-09T15:33:41;2.83;;;0.95;;
60002;SDS011;46322;52.018;8.702;2022-09-09T15:38:50;3.60;;;0.90;;
60002;SDS011;46322;52.018;8.702;2022-09-09T15:43:51;3.20;;;0.90;;
60002;SDS011;46322;52.018;8.702;2022-09-09T15:48:57;2.92;;;1.00;;
60002;SDS011;46322;52.018;8.702;2022-09-09T15:54:02;3.95;;;1.00;;
60002;SDS011;46322;52.018;8.702;2022-09-09T15:59:03;3.37;;;1.00;;
60002;SDS011;46322;52.018;8.702;2022-09-09T16:04:04;3.50;;;1.00;;
60002;SDS011;46322;52.018;8.702;2022-09-09T16:09:05;3.33;;;1.00;;
60002;SDS011;46322;52.018;8.702;2022-09-09T16:14:06;2.83;;;0.88;;
60002;SDS011;46322;52.018;8.702;2022-09-09T16:19:07;3.80;;;1.17;;
60002;SDS011;46322;52.018;8.702;2022-09-09T16:24:09;3.83;;;1.17;;
60002;SDS011;46322;52.018;8.702;2022-09-09T16:29:12;3.30;;;0.90;;
60002;SDS011;46322;52.018;8.702;2022-09-09T16:34:14;4.40;;;1.30;;
60002;SDS011;46322;52.018;8.702;2022-09-09T16:39:16;5.20;;;1.50;;
60002;SDS011;46322;52.018;8.702;2022-09-09T16:44:18;5.53;;;1.70;;
60002;SDS011;46322;52.018;8.702;2022-09-09T16:49:18;6.23;;;1.70;;
60002;SDS011;46322;52.018;8.702;2022-09-09T16:54:19;5.73;;;1.73;;
60002;SDS011;46322;52.018;8.702;2022-09-09T16:59:23;6.40;;;1.90;;
60002;SDS011;46322;52.018;8.702;2022-09-09T17:04:27;6.47;;;2.30;;
60002;SDS011;46322;52.018;8.702;2022-09-09T17:09:30;4.43;;;1.97;;
60002;SDS011;46322;52.018;8.702;2022-09-09T17:14:30;5.57;;;2.03;;
60002;SDS011;46322;52.018;8.702;2022-09-09T17:19:43;3.88;;;1.70;;
60002;SDS011;46322;52.018;8.702;2022-09-09T17:24:43;5.50;;;1.83;;
60002;SDS011;46322;52.018;8.702;2022-09-09T17:29:50;4.75;;;1.70;;
60002;SDS011;46322;52.018;8.702;2022-09-09T17:34:50;10.07;;;2.08;;
60002;SDS011;46322;52.018;8.702;2022-09-09T17:40:05;5.53;;;2.17;;
60002;SDS011;46322;52.018;8.702;2022-09-09T17:45:06;5.25;;;1.77;;
60002;SDS011;46322;52.018;8.702;2022-09-09T17:50:08;4.17;;;1.50;;
60002;SDS011;46322;52.018;8.702;2022-09-09T17:55:12;4.07;;;1.70;;
60002;SDS011;46322;52.018;8.702;2022-09-09T18:00:13;4.13;;;1.80;;
60002;SDS011;46322;52.018;8.702;2022-09-09T18:05:13;4.57;;;1.90;;
60002;SDS011;46322;52.018;8.702;2022-09-09T18:10:16;3.87;;;1.90;;
60002;SDS011;46322;52.018;8.702;2022-09-09T18:15:16;5.37;;;1.80;;
60002;SDS011;46322;52.018;8.702;2022-09-09T18:20:16;5.17;;;1.87;;
60002;SDS011;46322;52.018;8.702;2022-09-09T18:25:16;5.53;;;2.10;;
60002;SDS011;46322;52.018;8.702;2022-09-09T18:30:17;4.65;;;1.67;;
60002;SDS011;46322;52.018;8.702;2022-09-09T18:35:17;4.57;;;1.80;;
60002;SDS011;46322;52.018;8.702;2022-09-09T18:40:17;5.30;;;1.60;;
60002;SDS011;46322;52.018;8.702;2022-09-09T18:45:18;5.60;;;2.05;;
60002;SDS011;46322;52.018;8.702;2022-09-09T18:50:24;4.55;;;1.90;;
60002;SDS011;46322;52.018;8.702;2022-09-09T18:55:24;7.70;;;2.00;;
60002;SDS011;46322;52.018;8.702;2022-09-09T19:00:25;4.63;;;2.20;;
60002;SDS011;46322;52.018;8.702;2022-09-09T19:05:27;5.60;;;2.20;;
60002;SDS011;46322;52.018;8.702;2022-09-09T19:10:27;4.50;;;1.83;;
60002;SDS011;46322;52.018;8.702;2022-09-09T19:15:27;4.57;;;1.80;;
60002;SDS011;46322;52.018;8.702;2022-09-09T19:20:27;4.65;;;1.90;;
60002;SDS011;46322;52.018;8.702;2022-09-09T19:25:28;4.90;;;1.88;;
60002;SDS011;46322;52.018;8.702;2022-09-09T19:30:28;4.57;;;2.00;;
60002;SDS011;46322;52.018;8.702;2022-09-09T19:35:30;5.10;;;1.60;;
60002;SDS011;46322;52.018;8.702;2022-09-09T19:40:30;4.93;;;1.52;;
60002;SDS011;46322;52.018;8.702;2022-09-09T19:45:30;4.90;;;1.50;;
60002;SDS011;46322;52.018;8.702;2022-09-09T19:50:33;3.63;;;1.30;;
60002;SDS011;46322;52.018;8.702;2022-09-09T19:55:37;4.05;;;1.65;;
60002;SDS011;46322;52.018;8.702;2022-09-09T20:00:38;3.00;;;1.35;;
60002;SDS011;46322;52.018;8.702;2022-09-09T20:05:38;4.60;;;1.80;;
60002;SDS011;46322;52.018;8.702;2022-09-09T20:10:38;5.47;;;1.42;;
60002;SDS011;46322;52.018;8.702;2022-09-09T20:15:39;4.97;;;1.50;;
60002;SDS011;46322;52.018;8.702;2022-09-09T20:20:39;5.88;;;1.50;;
60002;SDS011;46322;52.018;8.702;2022-09-09T20:25:40;3.90;;;1.20;;
60002;SDS011;46322;52.018;8.702;2022-09-09T20:30:41;4.95;;;1.45;;
60002;SDS011;46322;52.018;8.702;2022-09-09T20:35:41;4.35;;;1.35;;
60002;SDS011;46322;52.018;8.702;2022-09-09T20:40:41;4.55;;;1.70;;
60002;SDS011;46322;52.018;8.702;2022-09-09T20:45:42;5.35;;;1.38;;
60002;SDS011;46322;52.018;8.702;2022-09-09T20:50:42;3.05;;;1.15;;
60002;SDS011;46322;52.018;8.702;2022-09-09T20:55:43;4.00;;;1.40;;
60002;SDS011;46322;52.018;8.702;2022-09-09T21:00:43;4.00;;;1.50;;
60002;SDS011;46322;52.018;8.702;2022-09-09T21:05:44;4.75;;;1.10;;
60002;SDS011;46322;52.018;8.702;2022-09-09T21:10:44;3.63;;;1.35;;
60002;SDS011;46322;52.018;8.702;2022-09-09T21:15:45;4.80;;;1.20;;
60002;SDS011;46322;52.018;8.702;2022-09-09T21:20:46;4.00;;;1.30;;
60002;SDS011;46322;52.018;8.702;2022-09-09T21:25:47;3.38;;;1.23;;
60002;SDS011;46322;52.018;8.702;2022-09-09T21:30:48;6.17;;;1.70;;
60002;SDS011;46322;52.018;8.702;2022-09-09T21:35:50;4.15;;;1.30;;
60002;SDS011;46322;52.018;8.702;2022-09-09T21:40:50;4.35;;;1.20;;
60002;SDS011;46322;52.018;8.702;2022-09-09T21:45:51;4.20;;;1.10;;
60002;SDS011;46322;52.018;8.702;2022-09-09T21:50:51;3.88;;;1.20;;
60002;SDS011;46322;52.018;8.702;2022-09-09T21:55:52;3.70;;;1.00;;
60002;SDS011;46322;52.018;8.702;2022-09-09T22:00:52;4.78;;;1.15;;
60002;SDS011;46322;52.018;8.702;2022-09-09T22:05:52;3.63;;;1.10;;
60002;SDS011;46322;52.018;8.702;2022-09-09T22:10:52;3.17;;;1.10;;
60002;SDS011;46322;52.018;8.702;2022-09-09T22:15:53;3.90;;;1.50;;
60002;SDS011;46322;52.018;8.702;2022-09-09T22:20:53;3.10;;;1.30;;
60002;SDS011;46322;52.018;8.702;2022-09-09T22:25:54;3.50;;;1.08;;
60002;SDS011;46322;52.018;8.702;2022-09-09T22:30:58;3.90;;;1.40;;
60002;SDS011;46322;52.018;8.702;2022-09-09T22:35:58;4.20;;;1.55;;
60002;SDS011;46322;52.018;8.702;2022-09-09T22:40:58;3.40;;;1.30;;
60002;SDS011;46322;52.018;8.702;2022-09-09T22:46:00;6.45;;;1.52;;
60002;SDS011;46322;52.018;8.702;2022-09-09T22:51:04;3.03;;;1.30;;
60002;SDS011;46322;52.018;8.702;2022-09-09T22:56:07;3.88;;;1.80;;
60002;SDS011;46322;52.018;8.702;2022-09-09T23:01:15;4.70;;;1.48;;
60002;SDS011;46322;52.018;8.702;2022-09-09T23:06:18;3.87;;;1.40;;
60002;SDS011;46322;52.018;8.702;2022-09-09T23:11:24;4.33;;;1.60;;
60002;SDS011;46322;52.018;8.702;2022-09-09T23:16:26;4.05;;;1.75;;
60002;SDS011;46322;52.018;8.702;2022-09-09T23:21:29;4.25;;;1.90;;
60002;SDS011;46322;52.018;8.702;2022-09-09T23:26:30;4.57;;;1.57;;
60002;SDS011;46322;52.018;8.702;2022-09-09T23:31:32;4.50;;;1.80;;
60002;SDS011;46322;52.018;8.702;2022-09-09T23:36:33;4.38;;;1.70;;
60002;SDS011;46322;52.018;8.702;2022-09-09T23:41:34;4.90;;;1.95;;
60002;SDS011;46322;52.018;8.702;2022-09-09T23:46:36;4.72;;;1.90;;
60002;SDS011;46322;52.018;8.702;2022-09-09T23:51:36;4.13;;;1.90;;
60002;SDS011;46322;52.018;8.702;2022-09-09T23:56:39;5.97;;;1.90;;
